Time;durP1;ratioP1;P1;durP2;ratioP2;P2;SDS_P1;SDS_P2;PMS_P1;PMS_P2;Temp;Humidity;BMP_temperature;BMP_pressure;BME280_temperature;BME280_humidity;BME280_pressure;Samples;Min_cycle;Max_cycle;Signal;HPM_P1;HPM_P2
2021/01/02 00:00:00;;;;;;;20.80;14.88;;;;;;;;;;5024720;28;20357;-86
2021/01/02 00:02:41;;;;;;;17.40;12.93;;;;;;;;;;5040132;28;20231;-85
2021/01/02 00:05:07;;;;;;;17.30;13.98;;;;;;;;;;5060465;28;20179;-85
2021/01/02 00:07:39;;;;;;;19.13;13.63;;;;;;;;;;5103412;28;20629;-86
2021/01/02 00:10:06;;;;;;;16.90;13.20;;;;;;;;;;5102238;28;20567;-86
2021/01/02 00:12:38;;;;;;;20.00;14.80;;;;;;;;;;5102050;28;20187;-85
2021/01/02 00:15:04;;;;;;;18.52;13.98;;;;;;;;;;5102320;28;20180;-86
2021/01/02 00:17:30;;;;;;;19.23;14.15;;;;;;;;;;5095648;28;20213;-85
2021/01/02 00:20:15;;;;;;;17.80;13.83;;;;;;;;;;5095281;28;20213;-85
2021/01/02 00:22:48;;;;;;;20.05;13.75;;;;;;;;;;5096129;28;20413;-85
2021/01/02 00:25:15;;;;;;;19.85;15.10;;;;;;;;;;5101647;28;20180;-85
2021/01/02 00:27:47;;;;;;;16.35;13.57;;;;;;;;;;5095932;28;20185;-84
2021/01/02 00:30:17;;;;;;;17.45;14.80;;;;;;;;;;5100263;28;20191;-84
2021/01/02 00:33:27;;;;;;;21.42;14.57;;;;;;;;;;5095458;28;20226;-85
2021/01/02 00:35:57;;;;;;;25.05;15.80;;;;;;;;;;5060066;28;20518;-85
2021/01/02 00:38:23;;;;;;;20.38;14.07;;;;;;;;;;5043777;28;20201;-85
2021/01/02 00:40:49;;;;;;;21.75;15.82;;;;;;;;;;5045204;28;20205;-85
2021/01/02 00:43:16;;;;;;;18.05;13.88;;;;;;;;;;5059867;28;20181;-85
2021/01/02 00:45:41;;;;;;;16.77;13.13;;;;;;;;;;5060548;28;20204;-85
2021/01/02 00:48:07;;;;;;;18.00;14.45;;;;;;;;;;5059604;28;20197;-85
2021/01/02 00:50:33;;;;;;;19.00;12.20;;;;;;;;;;5043396;28;20212;-84
2021/01/02 00:53:18;;;;;;;21.25;14.20;;;;;;;;;;5039606;28;20207;-84
2021/01/02 00:56:06;;;;;;;16.00;12.35;;;;;;;;;;5044103;28;20177;-85
2021/01/02 00:58:40;;;;;;;14.90;10.70;;;;;;;;;;5043244;28;20188;-84
2021/01/02 01:01:07;;;;;;;15.45;11.35;;;;;;;;;;5042890;28;20264;-85
2021/01/02 01:03:43;;;;;;;16.40;11.50;;;;;;;;;;5042275;28;20173;-84
2021/01/02 01:06:11;;;;;;;14.43;11.52;;;;;;;;;;5089474;27;20195;-84
2021/01/02 01:08:42;;;;;;;16.38;10.93;;;;;;;;;;5113485;28;20183;-84
2021/01/02 01:11:10;;;;;;;18.70;11.95;;;;;;;;;;5098694;28;20179;-83
2021/01/02 01:13:37;;;;;;;14.98;11.60;;;;;;;;;;5098037;28;20180;-84
2021/01/02 01:16:03;;;;;;;17.63;10.90;;;;;;;;;;5100501;28;20259;-84
2021/01/02 01:18:38;;;;;;;17.15;11.10;;;;;;;;;;5100479;28;20264;-83
2021/01/02 01:21:07;;;;;;;18.70;11.70;;;;;;;;;;5088314;28;20205;-84
2021/01/02 01:23:36;;;;;;;15.73;12.23;;;;;;;;;;5098979;28;20176;-84
2021/01/02 01:26:21;;;;;;;14.32;10.95;;;;;;;;;;5095291;28;20176;-84
2021/01/02 01:28:50;;;;;;;12.77;10.60;;;;;;;;;;5101178;28;20194;-83
2021/01/02 01:31:17;;;;;;;16.50;12.20;;;;;;;;;;5100777;28;20671;-84
2021/01/02 01:33:47;;;;;;;16.55;11.65;;;;;;;;;;5101046;28;20207;-83
2021/01/02 01:36:15;;;;;;;15.30;11.20;;;;;;;;;;5097388;28;20252;-81
2021/01/02 01:38:43;;;;;;;17.00;11.85;;;;;;;;;;5099091;28;20275;-83
2021/01/02 01:41:12;;;;;;;16.40;12.20;;;;;;;;;;5101959;28;20199;-82
2021/01/02 01:43:58;;;;;;;18.65;11.38;;;;;;;;;;5094750;28;20744;-83
2021/01/02 01:46:28;;;;;;;15.50;11.50;;;;;;;;;;5019723;28;20257;-83
2021/01/02 01:49:10;;;;;;;14.02;10.27;;;;;;;;;;5023273;28;20583;-83
2021/01/02 01:51:50;;;;;;;13.73;10.38;;;;;;;;;;5023092;28;20198;-84
2021/01/02 01:54:35;;;;;;;13.57;10.60;;;;;;;;;;5023511;28;20178;-83
2021/01/02 01:57:11;;;;;;;14.80;11.43;;;;;;;;;;5005977;28;20202;-84
2021/01/02 02:00:04;;;;;;;17.52;11.18;;;;;;;;;;5017745;28;20232;-83
2021/01/02 02:02:29;;;;;;;14.18;10.25;;;;;;;;;;4964956;28;20216;-84
2021/01/02 02:05:04;;;;;;;16.40;10.93;;;;;;;;;;4975802;28;20195;-83
2021/01/02 02:07:49;;;;;;;13.85;10.20;;;;;;;;;;4947958;29;20446;-83
2021/01/02 02:10:26;;;;;;;12.73;9.30;;;;;;;;;;4963642;28;20192;-83
2021/01/02 02:12:55;;;;;;;20.15;11.10;;;;;;;;;;4963817;29;20200;-83
2021/01/02 02:15:22;;;;;;;15.05;10.10;;;;;;;;;;4980069;28;20216;-81
2021/01/02 02:17:49;;;;;;;15.27;9.88;;;;;;;;;;4947444;29;20244;-82
2021/01/02 02:20:16;;;;;;;15.80;9.93;;;;;;;;;;4980693;28;20263;-82
2021/01/02 02:22:43;;;;;;;13.90;9.68;;;;;;;;;;4998164;28;20173;-82
2021/01/02 02:25:12;;;;;;;14.23;9.60;;;;;;;;;;5043358;28;20231;-84
2021/01/02 02:27:39;;;;;;;13.00;9.07;;;;;;;;;;5042227;28;20185;-83
2021/01/02 02:30:25;;;;;;;14.77;10.02;;;;;;;;;;5043982;28;20217;-83
2021/01/02 02:32:51;;;;;;;13.13;9.38;;;;;;;;;;5075654;28;20783;-83
2021/01/02 02:35:21;;;;;;;12.93;9.73;;;;;;;;;;5057027;28;20177;-83
2021/01/02 02:37:48;;;;;;;13.20;10.43;;;;;;;;;;5045704;28;20173;-83
2021/01/02 02:40:17;;;;;;;15.75;9.82;;;;;;;;;;5092677;28;20559;-82
2021/01/02 02:42:46;;;;;;;14.55;10.48;;;;;;;;;;5101607;28;20179;-83
2021/01/02 02:45:13;;;;;;;14.93;11.25;;;;;;;;;;5101126;28;20184;-82
2021/01/02 02:47:40;;;;;;;15.02;11.95;;;;;;;;;;5087311;28;20192;-82
2021/01/02 02:50:14;;;;;;;13.77;10.20;;;;;;;;;;5102529;28;20183;-83
2021/01/02 02:52:40;;;;;;;15.40;10.57;;;;;;;;;;5098648;28;20171;-82
2021/01/02 02:55:07;;;;;;;16.42;11.02;;;;;;;;;;5098099;28;20210;-82
2021/01/02 02:57:33;;;;;;;15.48;10.43;;;;;;;;;;5089211;28;20247;-82
2021/01/02 03:00:00;;;;;;;19.33;11.38;;;;;;;;;;5101370;28;20385;-82
2021/01/02 03:02:26;;;;;;;14.02;10.88;;;;;;;;;;5097403;28;20247;-82
2021/01/02 03:04:52;;;;;;;15.02;11.68;;;;;;;;;;5099317;28;20186;-82
2021/01/02 03:07:18;;;;;;;15.38;11.40;;;;;;;;;;5103262;28;20180;-82
2021/01/02 03:09:44;;;;;;;16.45;10.05;;;;;;;;;;5096664;28;20207;-82
2021/01/02 03:12:10;;;;;;;19.00;11.30;;;;;;;;;;5097967;28;20654;-80
2021/01/02 03:14:36;;;;;;;18.05;12.02;;;;;;;;;;5102035;28;20188;-82
2021/01/02 03:17:02;;;;;;;15.52;11.77;;;;;;;;;;5097993;28;20190;-83
2021/01/02 03:19:29;;;;;;;14.95;11.57;;;;;;;;;;5102806;28;20207;-82
2021/01/02 03:21:55;;;;;;;18.23;11.38;;;;;;;;;;5103093;28;20184;-82
2021/01/02 03:24:21;;;;;;;16.90;11.15;;;;;;;;;;5100812;28;20176;-82
2021/01/02 03:26:47;;;;;;;18.25;12.32;;;;;;;;;;5097566;28;20184;-82
2021/01/02 03:29:13;;;;;;;16.40;11.40;;;;;;;;;;5102397;28;20236;-82
2021/01/02 03:31:40;;;;;;;16.27;10.75;;;;;;;;;;5097333;28;20247;-83
2021/01/02 03:34:06;;;;;;;13.48;10.98;;;;;;;;;;5095765;28;20181;-82
2021/01/02 03:36:32;;;;;;;16.52;12.45;;;;;;;;;;5098345;28;20187;-82
2021/01/02 03:38:58;;;;;;;13.48;11.07;;;;;;;;;;5101413;28;20181;-82
2021/01/02 03:41:27;;;;;;;17.38;12.18;;;;;;;;;;5097272;28;20203;-82
2021/01/02 03:43:53;;;;;;;16.83;12.00;;;;;;;;;;5098328;28;20175;-82
2021/01/02 03:46:19;;;;;;;19.88;11.70;;;;;;;;;;5095465;28;20171;-81
2021/01/02 03:48:46;;;;;;;14.02;11.10;;;;;;;;;;5095570;28;20203;-82
2021/01/02 03:51:12;;;;;;;15.18;11.48;;;;;;;;;;5099204;28;20259;-82
2021/01/02 03:53:38;;;;;;;19.17;13.10;;;;;;;;;;5101369;28;20185;-82
2021/01/02 03:56:04;;;;;;;15.20;11.70;;;;;;;;;;5100609;28;20202;-81
2021/01/02 03:58:30;;;;;;;19.83;13.13;;;;;;;;;;5094120;28;20215;-82
2021/01/02 04:00:56;;;;;;;14.93;11.65;;;;;;;;;;5101824;28;20228;-82
2021/01/02 04:03:22;;;;;;;14.73;10.57;;;;;;;;;;5100938;28;20188;-82
2021/01/02 04:05:49;;;;;;;21.23;14.00;;;;;;;;;;5100655;28;20243;-82
2021/01/02 04:08:15;;;;;;;17.27;12.55;;;;;;;;;;5095700;28;20228;-80
2021/01/02 04:10:41;;;;;;;15.65;12.38;;;;;;;;;;5097201;28;20176;-80
2021/01/02 04:13:07;;;;;;;15.48;12.45;;;;;;;;;;5102154;28;20194;-82
2021/01/02 04:15:33;;;;;;;18.75;13.35;;;;;;;;;;5097048;28;20188;-81
2021/01/02 04:17:59;;;;;;;18.73;13.45;;;;;;;;;;5095679;28;20202;-81
2021/01/02 04:20:26;;;;;;;15.93;10.38;;;;;;;;;;5100603;28;20219;-81
2021/01/02 04:22:52;;;;;;;16.70;13.00;;;;;;;;;;5097114;28;20183;-82
2021/01/02 04:25:19;;;;;;;16.73;11.55;;;;;;;;;;5101821;28;20267;-82
2021/01/02 04:27:45;;;;;;;17.52;13.57;;;;;;;;;;5100855;28;20184;-81
2021/01/02 04:30:11;;;;;;;14.90;11.43;;;;;;;;;;5098696;28;20194;-81
2021/01/02 04:32:37;;;;;;;19.25;14.07;;;;;;;;;;5094618;28;20192;-82
2021/01/02 04:35:03;;;;;;;17.65;11.88;;;;;;;;;;5097531;28;20185;-82
2021/01/02 04:37:30;;;;;;;19.60;14.15;;;;;;;;;;5101534;28;20317;-81
2021/01/02 04:39:56;;;;;;;16.88;11.85;;;;;;;;;;5101312;28;20217;-81
2021/01/02 04:42:23;;;;;;;19.10;12.45;;;;;;;;;;5097984;28;20432;-80
2021/01/02 04:44:49;;;;;;;20.58;12.77;;;;;;;;;;5096016;28;20244;-81
2021/01/02 04:47:16;;;;;;;19.98;13.68;;;;;;;;;;5094842;28;20178;-82
2021/01/02 04:49:42;;;;;;;17.50;12.60;;;;;;;;;;5097198;28;20206;-81
2021/01/02 04:52:09;;;;;;;21.27;13.90;;;;;;;;;;5094437;28;20188;-82
2021/01/02 04:54:38;;;;;;;18.20;12.85;;;;;;;;;;5101421;28;20207;-81
2021/01/02 04:57:04;;;;;;;19.73;14.15;;;;;;;;;;5099980;28;20190;-81
2021/01/02 04:59:31;;;;;;;22.77;14.85;;;;;;;;;;5093384;28;20292;-81
2021/01/02 05:01:58;;;;;;;17.75;14.23;;;;;;;;;;5097309;28;20164;-82
2021/01/02 05:04:24;;;;;;;18.58;14.07;;;;;;;;;;5101770;28;20175;-81
2021/01/02 05:06:50;;;;;;;22.48;14.77;;;;;;;;;;5093847;28;20172;-80
2021/01/02 05:09:16;;;;;;;21.63;13.60;;;;;;;;;;5098285;28;20346;-81
2021/01/02 05:11:42;;;;;;;19.45;15.68;;;;;;;;;;5094564;28;20238;-81
2021/01/02 05:14:08;;;;;;;22.17;15.77;;;;;;;;;;5099306;28;20171;-81
2021/01/02 05:16:36;;;;;;;26.30;15.38;;;;;;;;;;5113067;28;20189;-81
2021/01/02 05:19:06;;;;;;;22.90;15.73;;;;;;;;;;5093575;28;20180;-81
2021/01/02 05:21:33;;;;;;;20.50;15.40;;;;;;;;;;5097791;28;20177;-82
2021/01/02 05:24:12;;;;;;;21.60;15.10;;;;;;;;;;5101602;28;20186;-81
2021/01/02 05:26:39;;;;;;;23.98;15.48;;;;;;;;;;5114691;28;20183;-80
2021/01/02 05:29:09;;;;;;;18.58;14.18;;;;;;;;;;5100599;28;20633;-81
2021/01/02 05:31:37;;;;;;;23.67;16.45;;;;;;;;;;5105572;28;20263;-81
2021/01/02 05:34:04;;;;;;;24.30;16.52;;;;;;;;;;5098049;28;20194;-82
2021/01/02 05:36:30;;;;;;;17.38;14.23;;;;;;;;;;5104304;28;20202;-81
2021/01/02 05:38:56;;;;;;;19.40;13.02;;;;;;;;;;5102860;28;20216;-82
2021/01/02 05:41:22;;;;;;;20.08;15.05;;;;;;;;;;5099912;28;20237;-79
2021/01/02 05:43:48;;;;;;;23.38;14.15;;;;;;;;;;5098885;28;20176;-81
2021/01/02 05:46:14;;;;;;;19.65;14.82;;;;;;;;;;5097680;28;20183;-82
2021/01/02 05:48:40;;;;;;;19.85;14.27;;;;;;;;;;5098715;28;20195;-81
2021/01/02 05:51:07;;;;;;;24.30;15.40;;;;;;;;;;5100274;28;20187;-81
2021/01/02 05:53:34;;;;;;;20.27;14.57;;;;;;;;;;5102829;28;20181;-81
2021/01/02 05:56:00;;;;;;;19.75;14.48;;;;;;;;;;5100595;28;20266;-81
2021/01/02 05:58:26;;;;;;;19.52;15.15;;;;;;;;;;5103243;28;20199;-81
2021/01/02 06:01:02;;;;;;;20.98;15.27;;;;;;;;;;5098777;28;20224;-81
2021/01/02 06:03:28;;;;;;;19.48;14.50;;;;;;;;;;5100587;28;20214;-81
2021/01/02 06:06:05;;;;;;;20.63;15.15;;;;;;;;;;5099401;28;20535;-81
2021/01/02 06:08:41;;;;;;;19.40;14.60;;;;;;;;;;5097551;28;20184;-81
2021/01/02 06:11:11;;;;;;;22.10;16.38;;;;;;;;;;5118582;28;20182;-81
2021/01/02 06:13:39;;;;;;;24.88;15.85;;;;;;;;;;5099050;28;20236;-81
2021/01/02 06:16:06;;;;;;;27.75;16.63;;;;;;;;;;5104608;28;20180;-81
2021/01/02 06:18:33;;;;;;;22.13;16.55;;;;;;;;;;5098650;28;20271;-81
2021/01/02 06:21:03;;;;;;;22.08;16.17;;;;;;;;;;5101019;28;20294;-81
2021/01/02 06:23:29;;;;;;;21.38;15.35;;;;;;;;;;5096955;28;20192;-81
2021/01/02 06:25:56;;;;;;;26.15;16.33;;;;;;;;;;5101137;28;20202;-81
2021/01/02 06:28:24;;;;;;;20.70;16.23;;;;;;;;;;5096335;28;20184;-81
2021/01/02 06:30:51;;;;;;;21.60;16.50;;;;;;;;;;5097127;28;20176;-79
2021/01/02 06:33:18;;;;;;;29.52;18.10;;;;;;;;;;5102862;28;20215;-80
2021/01/02 06:35:44;;;;;;;22.80;15.95;;;;;;;;;;5102688;28;20184;-81
2021/01/02 06:38:11;;;;;;;23.85;15.75;;;;;;;;;;5096590;28;20176;-80
2021/01/02 06:40:38;;;;;;;23.20;16.05;;;;;;;;;;5098524;28;20211;-80
2021/01/02 06:43:06;;;;;;;21.90;16.55;;;;;;;;;;5096467;28;20601;-80
2021/01/02 06:45:38;;;;;;;24.10;15.25;;;;;;;;;;5101017;28;20673;-81
2021/01/02 06:48:16;;;;;;;22.40;16.80;;;;;;;;;;5101958;28;20199;-81
2021/01/02 06:50:42;;;;;;;19.67;17.27;;;;;;;;;;5096367;28;20217;-81
2021/01/02 06:53:23;;;;;;;22.30;15.05;;;;;;;;;;5105248;28;20187;-80
2021/01/02 06:56:03;;;;;;;22.08;16.35;;;;;;;;;;5099630;28;20582;-80
2021/01/02 06:58:38;;;;;;;22.23;16.73;;;;;;;;;;5093870;28;20195;-81
2021/01/02 07:01:04;;;;;;;25.50;16.98;;;;;;;;;;5103529;28;20214;-80
2021/01/02 07:03:39;;;;;;;20.80;15.68;;;;;;;;;;5103151;28;20188;-80
2021/01/02 07:09:11;;;;;;;25.52;17.13;;;;;;;;;;5096519;28;20754;-80
2021/01/02 07:11:40;;;;;;;21.35;15.93;;;;;;;;;;5099373;28;20176;-80
2021/01/02 07:14:09;;;;;;;23.88;17.20;;;;;;;;;;5116957;28;20179;-80
2021/01/02 07:16:36;;;;;;;22.08;16.10;;;;;;;;;;5097368;28;20192;-80
2021/01/02 07:19:02;;;;;;;28.45;16.63;;;;;;;;;;5102411;28;20184;-81
2021/01/02 07:21:37;;;;;;;22.10;16.35;;;;;;;;;;5102226;28;20638;-80
2021/01/02 07:24:22;;;;;;;24.80;17.13;;;;;;;;;;5101511;28;20771;-80
2021/01/02 07:26:48;;;;;;;26.17;16.23;;;;;;;;;;5113273;28;20177;-80
2021/01/02 07:29:18;;;;;;;21.83;17.02;;;;;;;;;;5098167;28;20176;-80
2021/01/02 07:31:44;;;;;;;298.83;165.02;;;;;;;;;;5098370;28;20168;-80
2021/01/02 07:34:23;;;;;;;31.60;24.35;;;;;;;;;;5103122;28;20229;-80
2021/01/02 07:36:50;;;;;;;27.75;23.00;;;;;;;;;;5096022;28;20703;-80
2021/01/02 07:39:17;;;;;;;37.78;29.17;;;;;;;;;;5090109;28;20183;-80
2021/01/02 07:41:43;;;;;;;34.00;28.10;;;;;;;;;;5097194;28;20248;-80
2021/01/02 07:44:09;;;;;;;22.65;18.15;;;;;;;;;;5102974;28;20576;-79
2021/01/02 07:46:43;;;;;;;181.27;102.88;;;;;;;;;;5108515;28;20267;-80
2021/01/02 07:49:09;;;;;;;105.60;67.82;;;;;;;;;;5126003;27;20675;-80
2021/01/02 07:51:35;;;;;;;75.72;51.47;;;;;;;;;;5097984;28;20190;-80
2021/01/02 07:54:02;;;;;;;30.63;20.38;;;;;;;;;;5097508;28;20213;-80
2021/01/02 07:56:34;;;;;;;83.07;45.65;;;;;;;;;;5100525;28;20183;-80
2021/01/02 07:59:21;;;;;;;21.20;16.05;;;;;;;;;;5097434;28;20168;-80
2021/01/02 08:01:57;;;;;;;25.38;16.50;;;;;;;;;;5081818;28;20192;-80
2021/01/02 08:04:24;;;;;;;23.00;17.70;;;;;;;;;;5061101;28;20197;-80
2021/01/02 08:06:51;;;;;;;16.85;13.90;;;;;;;;;;5061066;28;20196;-80
2021/01/02 08:09:17;;;;;;;28.80;22.00;;;;;;;;;;5079815;28;20199;-80
2021/01/02 08:11:49;;;;;;;19.88;16.77;;;;;;;;;;5077293;28;20262;-80
2021/01/02 08:14:15;;;;;;;38.08;23.15;;;;;;;;;;5080603;28;20207;-80
2021/01/02 08:16:41;;;;;;;24.15;17.20;;;;;;;;;;5064051;28;20210;-80
2021/01/02 08:19:07;;;;;;;35.65;23.85;;;;;;;;;;5079953;28;20204;-81
2021/01/02 08:21:39;;;;;;;27.30;20.92;;;;;;;;;;5078104;28;20211;-80
2021/01/02 08:24:12;;;;;;;21.38;16.88;;;;;;;;;;5079928;28;20212;-80
2021/01/02 08:26:38;;;;;;;28.80;20.00;;;;;;;;;;5074803;28;20283;-80
2021/01/02 08:29:04;;;;;;;85.57;46.60;;;;;;;;;;5064300;28;20455;-79
2021/01/02 08:31:30;;;;;;;44.10;27.00;;;;;;;;;;5073697;28;20193;-80
2021/01/02 08:33:57;;;;;;;215.43;112.25;;;;;;;;;;5080088;28;20195;-79
2021/01/02 08:36:23;;;;;;;82.03;49.63;;;;;;;;;;5061971;28;20271;-79
2021/01/02 08:38:55;;;;;;;83.20;51.95;;;;;;;;;;5078044;28;20269;-80
2021/01/02 08:41:22;;;;;;;38.63;27.75;;;;;;;;;;5097708;28;20219;-76
2021/01/02 08:43:48;;;;;;;21.40;16.90;;;;;;;;;;5100902;28;20266;-80
2021/01/02 08:46:14;;;;;;;19.40;17.17;;;;;;;;;;5097341;28;20175;-80
2021/01/02 08:48:46;;;;;;;26.75;19.85;;;;;;;;;;5094738;28;20713;-79
2021/01/02 08:51:23;;;;;;;24.90;17.95;;;;;;;;;;5092585;28;20207;-79
2021/01/02 08:53:49;;;;;;;20.40;15.90;;;;;;;;;;5099826;28;20210;-80
2021/01/02 08:56:24;;;;;;;19.55;15.57;;;;;;;;;;5100325;28;20179;-79
2021/01/02 08:58:50;;;;;;;21.63;16.40;;;;;;;;;;5097419;28;20193;-76
2021/01/02 09:01:16;;;;;;;21.10;17.38;;;;;;;;;;5098038;28;20250;-79
2021/01/02 09:03:42;;;;;;;26.42;20.50;;;;;;;;;;5095319;28;20229;-79
2021/01/02 09:06:27;;;;;;;20.48;17.15;;;;;;;;;;5090480;28;20180;-80
2021/01/02 09:09:04;;;;;;;20.42;15.07;;;;;;;;;;5098200;28;20184;-79
2021/01/02 09:11:49;;;;;;;21.17;15.35;;;;;;;;;;5097467;28;20203;-81
2021/01/02 09:14:15;;;;;;;26.63;19.20;;;;;;;;;;5097342;28;20608;-80
2021/01/02 09:16:42;;;;;;;27.85;20.38;;;;;;;;;;5096275;28;20243;-80
2021/01/02 09:19:23;;;;;;;24.23;19.10;;;;;;;;;;5094960;28;20192;-81
2021/01/02 09:21:49;;;;;;;21.83;17.35;;;;;;;;;;5093872;28;20199;-80
2021/01/02 09:24:22;;;;;;;21.40;18.25;;;;;;;;;;5099816;28;20179;-79
2021/01/02 09:26:48;;;;;;;24.98;17.77;;;;;;;;;;5096830;28;20182;-79
2021/01/02 09:29:16;;;;;;;22.92;16.85;;;;;;;;;;5100313;28;20203;-80
2021/01/02 09:31:42;;;;;;;28.70;20.60;;;;;;;;;;5096969;28;20168;-80
2021/01/02 09:34:09;;;;;;;23.65;18.38;;;;;;;;;;5095336;28;20184;-80
2021/01/02 09:36:35;;;;;;;29.05;19.80;;;;;;;;;;5100540;28;20180;-80
2021/01/02 09:39:01;;;;;;;26.38;19.63;;;;;;;;;;5098057;28;20207;-80
2021/01/02 09:41:27;;;;;;;25.10;18.33;;;;;;;;;;5097151;28;20235;-80
2021/01/02 09:43:55;;;;;;;29.45;20.63;;;;;;;;;;5099425;28;20176;-80
2021/01/02 09:46:22;;;;;;;28.45;21.40;;;;;;;;;;5093874;28;20172;-80
2021/01/02 09:48:49;;;;;;;26.33;20.83;;;;;;;;;;5096653;28;20196;-81
2021/01/02 09:51:16;;;;;;;28.90;20.33;;;;;;;;;;5098402;28;20188;-80
2021/01/02 09:53:42;;;;;;;28.20;20.35;;;;;;;;;;5093753;28;20271;-81
2021/01/02 09:56:08;;;;;;;26.67;21.00;;;;;;;;;;5102758;28;20180;-81
2021/01/02 09:58:34;;;;;;;27.92;21.27;;;;;;;;;;5095114;28;20180;-81
2021/01/02 10:01:00;;;;;;;25.65;20.80;;;;;;;;;;5100552;28;20219;-79
2021/01/02 10:03:26;;;;;;;24.77;19.67;;;;;;;;;;5093226;28;20176;-81
2021/01/02 10:05:52;;;;;;;27.63;21.85;;;;;;;;;;5096726;28;20634;-82
2021/01/02 10:08:18;;;;;;;28.08;21.00;;;;;;;;;;5103184;28;20176;-82
2021/01/02 10:10:44;;;;;;;34.33;23.60;;;;;;;;;;5103682;28;20190;-82
2021/01/02 10:13:10;;;;;;;30.80;22.75;;;;;;;;;;5104458;28;20284;-83
2021/01/02 10:15:36;;;;;;;31.40;22.50;;;;;;;;;;5100268;28;20210;-83
2021/01/02 10:18:02;;;;;;;28.92;23.08;;;;;;;;;;5102414;28;20183;-83
2021/01/02 10:20:29;;;;;;;33.63;23.27;;;;;;;;;;5097288;28;20209;-83
2021/01/02 10:22:55;;;;;;;35.35;24.75;;;;;;;;;;5104626;28;20198;-84
2021/01/02 10:25:21;;;;;;;31.90;23.85;;;;;;;;;;5099580;28;20184;-84
2021/01/02 10:27:46;;;;;;;35.88;25.30;;;;;;;;;;5098844;28;20552;-84
2021/01/02 10:30:13;;;;;;;33.03;23.08;;;;;;;;;;5103448;28;20233;-84
2021/01/02 10:32:40;;;;;;;30.23;23.35;;;;;;;;;;5100124;28;20184;-85
2021/01/02 10:35:07;;;;;;;27.65;23.88;;;;;;;;;;5096480;28;20192;-84
2021/01/02 10:37:33;;;;;;;29.13;22.35;;;;;;;;;;5097098;28;20180;-85
2021/01/02 10:39:59;;;;;;;35.00;25.20;;;;;;;;;;5103108;28;20234;-84
2021/01/02 10:42:29;;;;;;;32.85;23.83;;;;;;;;;;5100269;28;20188;-84
2021/01/02 10:44:55;;;;;;;33.63;24.20;;;;;;;;;;5098017;28;20191;-84
2021/01/02 10:47:23;;;;;;;33.17;24.58;;;;;;;;;;5101193;28;20229;-85
2021/01/02 10:49:50;;;;;;;26.13;22.27;;;;;;;;;;5098998;28;20180;-85
2021/01/02 10:52:20;;;;;;;36.58;24.05;;;;;;;;;;5102382;28;20179;-85
2021/01/02 10:54:46;;;;;;;30.98;24.13;;;;;;;;;;5107081;28;20210;-85
2021/01/02 10:57:13;;;;;;;33.13;25.35;;;;;;;;;;5104111;28;20196;-83
2021/01/02 10:59:42;;;;;;;31.33;23.25;;;;;;;;;;5102257;28;20228;-85
2021/01/02 11:02:08;;;;;;;30.13;22.15;;;;;;;;;;5101302;28;20188;-87
2021/01/02 11:04:34;;;;;;;29.10;24.03;;;;;;;;;;5098541;28;20191;-86
2021/01/02 11:07:00;;;;;;;32.30;24.70;;;;;;;;;;5100051;28;20918;-86
2021/01/02 11:09:26;;;;;;;39.35;24.77;;;;;;;;;;5101812;28;20441;-84
2021/01/02 11:11:53;;;;;;;37.30;27.42;;;;;;;;;;5095285;28;20188;-84
2021/01/02 11:14:19;;;;;;;36.40;27.60;;;;;;;;;;5095471;28;20257;-84
2021/01/02 11:16:47;;;;;;;39.35;28.42;;;;;;;;;;5100529;28;20168;-84
2021/01/02 11:19:20;;;;;;;32.75;26.45;;;;;;;;;;5106347;28;20272;-85
2021/01/02 11:21:47;;;;;;;34.05;26.13;;;;;;;;;;5099239;28;20181;-85
2021/01/02 11:24:13;;;;;;;34.25;25.88;;;;;;;;;;5098333;28;20194;-84
2021/01/02 11:26:43;;;;;;;32.55;25.15;;;;;;;;;;5099583;28;20204;-83
2021/01/02 11:29:09;;;;;;;30.85;25.23;;;;;;;;;;5101354;28;20179;-85
2021/01/02 11:31:36;;;;;;;32.97;26.40;;;;;;;;;;5097053;28;20175;-85
2021/01/02 11:34:02;;;;;;;32.47;25.83;;;;;;;;;;5097822;28;20191;-84
2021/01/02 11:36:28;;;;;;;47.85;32.80;;;;;;;;;;5102103;28;20766;-85
2021/01/02 11:38:55;;;;;;;39.70;31.27;;;;;;;;;;5097856;28;20184;-85
2021/01/02 11:41:28;;;;;;;152.90;102.65;;;;;;;;;;5098616;28;20541;-85
2021/01/02 11:43:54;;;;;;;287.42;157.20;;;;;;;;;;5113853;28;20184;-84
2021/01/02 11:46:31;;;;;;;557.93;348.37;;;;;;;;;;5096272;28;20198;-83
2021/01/02 11:48:57;;;;;;;561.10;342.85;;;;;;;;;;5102847;28;20438;-85
2021/01/02 11:51:24;;;;;;;164.80;93.93;;;;;;;;;;5096443;28;20188;-87
2021/01/02 11:53:50;;;;;;;415.13;240.98;;;;;;;;;;5097890;28;20212;-85
2021/01/02 11:56:18;;;;;;;54.03;41.20;;;;;;;;;;5097534;28;20184;-84
2021/01/02 11:58:44;;;;;;;115.13;95.70;;;;;;;;;;5114879;28;20210;-85
2021/01/02 12:01:10;;;;;;;79.68;65.65;;;;;;;;;;5101583;28;20238;-84
2021/01/02 12:03:36;;;;;;;44.50;35.60;;;;;;;;;;5102385;28;20179;-85
2021/01/02 12:06:02;;;;;;;36.40;29.33;;;;;;;;;;5099762;28;20188;-84
2021/01/02 12:08:28;;;;;;;33.05;26.42;;;;;;;;;;5101154;28;20414;-84
2021/01/02 12:10:54;;;;;;;33.25;26.98;;;;;;;;;;5093362;28;20243;-85
2021/01/02 12:13:20;;;;;;;34.93;27.93;;;;;;;;;;5100631;28;20183;-85
2021/01/02 12:15:49;;;;;;;34.55;27.45;;;;;;;;;;5102488;28;20468;-84
2021/01/02 12:18:15;;;;;;;32.05;25.40;;;;;;;;;;5096533;28;20195;-84
2021/01/02 12:20:40;;;;;;;36.17;29.58;;;;;;;;;;5100176;28;20196;-84
2021/01/02 12:23:06;;;;;;;36.85;28.23;;;;;;;;;;5097625;28;20172;-84
2021/01/02 12:25:32;;;;;;;39.30;27.73;;;;;;;;;;5102346;28;20203;-84
2021/01/02 12:27:59;;;;;;;36.37;27.50;;;;;;;;;;5099084;28;20192;-84
2021/01/02 12:30:28;;;;;;;41.20;29.80;;;;;;;;;;5102203;28;20436;-85
2021/01/02 12:32:55;;;;;;;38.70;27.95;;;;;;;;;;5098986;28;20176;-85
2021/01/02 12:35:21;;;;;;;40.80;30.10;;;;;;;;;;5096615;28;20206;-85
2021/01/02 12:37:48;;;;;;;36.08;29.08;;;;;;;;;;5097261;28;20214;-83
2021/01/02 12:40:14;;;;;;;41.08;28.60;;;;;;;;;;5101501;28;20199;-85
2021/01/02 12:42:40;;;;;;;36.83;29.55;;;;;;;;;;5100126;28;20186;-85
2021/01/02 12:45:07;;;;;;;39.05;29.38;;;;;;;;;;5092691;28;20311;-86
2021/01/02 12:47:33;;;;;;;35.13;28.27;;;;;;;;;;5100533;28;20191;-85
2021/01/02 12:49:59;;;;;;;34.67;29.02;;;;;;;;;;5097699;28;20233;-85
2021/01/02 12:52:29;;;;;;;37.65;29.02;;;;;;;;;;5100674;28;20180;-86
2021/01/02 12:54:56;;;;;;;34.40;28.17;;;;;;;;;;5102500;28;20184;-84
2021/01/02 12:57:22;;;;;;;35.63;28.27;;;;;;;;;;5097827;28;20325;-86
2021/01/02 12:59:52;;;;;;;37.42;28.52;;;;;;;;;;5098004;28;20228;-87
2021/01/02 13:02:18;;;;;;;34.33;27.70;;;;;;;;;;5099815;28;20213;-84
2021/01/02 13:04:44;;;;;;;33.78;26.67;;;;;;;;;;5097155;28;20175;-85
2021/01/02 13:07:11;;;;;;;33.72;26.27;;;;;;;;;;5096124;28;20184;-86
2021/01/02 13:09:37;;;;;;;34.25;25.50;;;;;;;;;;5099975;28;20233;-86
2021/01/02 13:12:03;;;;;;;32.38;25.45;;;;;;;;;;5098559;28;20180;-85
2021/01/02 13:14:30;;;;;;;27.80;22.80;;;;;;;;;;5092298;28;20176;-85
2021/01/02 13:16:57;;;;;;;28.83;21.40;;;;;;;;;;5099381;28;20201;-86
2021/01/02 13:19:23;;;;;;;29.88;21.67;;;;;;;;;;5095326;28;20215;-84
2021/01/02 13:21:51;;;;;;;28.38;21.38;;;;;;;;;;5092524;28;20175;-85
2021/01/02 13:24:18;;;;;;;30.95;22.13;;;;;;;;;;5098344;28;20349;-86
2021/01/02 13:26:54;;;;;;;31.38;22.35;;;;;;;;;;5099601;28;20189;-86
2021/01/02 13:29:22;;;;;;;31.33;23.77;;;;;;;;;;5100410;28;20184;-85
2021/01/02 13:31:48;;;;;;;35.83;26.60;;;;;;;;;;5098923;28;20179;-86
2021/01/02 13:34:15;;;;;;;29.88;23.27;;;;;;;;;;5100790;28;20186;-84
2021/01/02 13:36:41;;;;;;;30.05;24.08;;;;;;;;;;5098794;28;20248;-86
2021/01/02 13:39:08;;;;;;;33.15;22.95;;;;;;;;;;5080690;28;20189;-85
2021/01/02 13:41:35;;;;;;;31.08;23.58;;;;;;;;;;5096391;28;20299;-85
2021/01/02 13:44:01;;;;;;;30.00;22.85;;;;;;;;;;5097626;28;20176;-84
2021/01/02 13:46:27;;;;;;;27.20;19.63;;;;;;;;;;5101749;28;20305;-86
2021/01/02 13:48:53;;;;;;;21.55;19.17;;;;;;;;;;5097626;28;20184;-84
2021/01/02 13:51:19;;;;;;;24.80;19.60;;;;;;;;;;5101797;28;20303;-85
2021/01/02 13:53:45;;;;;;;20.70;18.52;;;;;;;;;;5104428;28;25041;-85
2021/01/02 13:56:11;;;;;;;19.52;16.10;;;;;;;;;;5107791;28;20202;-85
2021/01/02 13:58:41;;;;;;;22.85;16.48;;;;;;;;;;5096936;28;20183;-84
2021/01/02 14:01:07;;;;;;;20.83;15.70;;;;;;;;;;5105067;28;20234;-85
2021/01/02 14:03:36;;;;;;;18.95;16.10;;;;;;;;;;5101237;28;20188;-85
2021/01/02 14:06:02;;;;;;;25.95;17.67;;;;;;;;;;5101807;28;20256;-84
2021/01/02 14:08:28;;;;;;;16.73;14.93;;;;;;;;;;5102770;28;20187;-86
2021/01/02 14:10:54;;;;;;;19.80;17.70;;;;;;;;;;5105380;28;20183;-85
2021/01/02 14:13:20;;;;;;;18.07;14.70;;;;;;;;;;5103169;28;20683;-86
2021/01/02 14:15:46;;;;;;;20.50;16.05;;;;;;;;;;5104406;28;20437;-85
2021/01/02 14:18:12;;;;;;;18.52;15.73;;;;;;;;;;5100620;28;20219;-85
2021/01/02 14:20:38;;;;;;;21.92;17.13;;;;;;;;;;5102191;28;20230;-85
2021/01/02 14:23:04;;;;;;;19.90;16.10;;;;;;;;;;5094689;28;20218;-85
2021/01/02 14:25:30;;;;;;;23.55;17.30;;;;;;;;;;5105155;28;20433;-85